createdAt,value
2023-05-19T00:00:31.319Z,16.15
2023-05-19T00:05:10.665Z,16.08
2023-05-19T00:09:28.597Z,16.17
2023-05-19T00:13:49.962Z,16.11
2023-05-19T00:18:09.273Z,16.15
2023-05-19T00:22:26.939Z,16.14
2023-05-19T00:26:44.582Z,16.17
2023-05-19T00:31:02.964Z,16.04
2023-05-19T00:35:20.921Z,16.11
2023-05-19T00:39:38.613Z,16.03
2023-05-19T00:43:56.395Z,16.20
2023-05-19T00:48:14.100Z,16.07
2023-05-19T00:52:32.017Z,16.15
2023-05-19T00:56:50.190Z,16.10
2023-05-19T01:01:08.649Z,16.15
2023-05-19T01:05:26.860Z,16.07
2023-05-19T01:09:44.702Z,16.15
2023-05-19T01:14:03.064Z,16.05
2023-05-19T01:18:33.548Z,16.11
2023-05-19T01:23:41.288Z,16.03
2023-05-19T01:28:29.591Z,16.11
2023-05-19T01:32:48.966Z,15.99
2023-05-19T01:37:08.256Z,16.07
2023-05-19T01:41:28.820Z,16.08
2023-05-19T01:45:47.340Z,16.09
2023-05-19T01:50:05.400Z,16.07
2023-05-19T01:54:23.104Z,16.05
2023-05-19T01:58:53.545Z,16.04
2023-05-19T02:03:38.962Z,16.07
2023-05-19T02:08:20.871Z,16.05
2023-05-19T02:12:40.736Z,16.04
2023-05-19T02:16:59.632Z,16.05
2023-05-19T02:21:17.467Z,16.03
2023-05-19T02:25:35.313Z,16.13
2023-05-19T02:29:53.506Z,16.05
2023-05-19T02:34:11.387Z,16.08
2023-05-19T02:38:28.941Z,16.06
2023-05-19T02:42:46.451Z,16.04
2023-05-19T02:47:05.175Z,16.09
2023-05-19T02:51:22.701Z,16.10
2023-05-19T02:55:40.363Z,16.05
2023-05-19T02:59:57.961Z,16.06
2023-05-19T03:04:16.024Z,16.07
2023-05-19T03:08:33.529Z,16.09
2023-05-19T03:12:51.760Z,16.12
2023-05-19T03:17:10.863Z,16.09
2023-05-19T03:21:29.076Z,16.07
2023-05-19T03:25:46.636Z,16.15
2023-05-19T03:30:07.583Z,16.09
2023-05-19T03:34:25.189Z,16.12
2023-05-19T03:38:43.589Z,16.16
2023-05-19T03:43:03.067Z,16.14
2023-05-19T03:47:21.179Z,16.20
2023-05-19T03:51:38.773Z,16.21
2023-05-19T03:55:57.424Z,16.24
2023-05-19T04:00:16.326Z,16.27
2023-05-19T04:04:34.089Z,16.24
2023-05-19T04:08:52.077Z,16.23
2023-05-19T04:13:10.271Z,16.32
2023-05-19T04:17:28.083Z,16.33
2023-05-19T04:21:47.118Z,16.41
2023-05-19T04:26:06.920Z,16.40
2023-05-19T04:30:26.146Z,16.50
2023-05-19T04:34:46.147Z,16.46
2023-05-19T04:39:07.689Z,16.56
2023-05-19T04:43:25.677Z,16.53
2023-05-19T04:47:43.253Z,16.59
2023-05-19T04:52:02.346Z,16.57
2023-05-19T04:56:19.844Z,16.59
2023-05-19T05:00:38.484Z,16.56
2023-05-19T05:04:56.989Z,16.63
2023-05-19T05:09:15.906Z,16.58
2023-05-19T05:13:34.482Z,16.68
2023-05-19T05:17:52.425Z,16.63
2023-05-19T05:22:12.376Z,16.71
2023-05-19T05:26:33.413Z,16.65
2023-05-19T05:30:52.299Z,16.74
2023-05-19T05:35:10.375Z,16.68
2023-05-19T05:39:29.255Z,16.72
2023-05-19T05:43:46.762Z,16.70
2023-05-19T05:48:05.514Z,16.77
2023-05-19T05:52:31.030Z,16.77
2023-05-19T05:56:49.464Z,16.76
2023-05-19T06:01:12.068Z,16.84
2023-05-19T06:05:29.694Z,16.88
2023-05-19T06:09:47.786Z,16.95
2023-05-19T06:14:05.498Z,16.94
2023-05-19T06:18:23.129Z,17.09
2023-05-19T06:22:42.363Z,17.08
2023-05-19T06:27:00.680Z,17.14
2023-05-19T06:31:18.704Z,17.17
2023-05-19T06:35:36.286Z,17.12
2023-05-19T06:39:55.293Z,17.22
2023-05-19T06:44:12.825Z,17.25
2023-05-19T06:48:31.420Z,17.26
2023-05-19T06:52:49.772Z,17.26
2023-05-19T06:57:07.401Z,17.25
2023-05-19T07:01:27.148Z,17.12
2023-05-19T07:05:44.684Z,17.23
2023-05-19T07:10:03.175Z,17.00
2023-05-19T07:14:22.084Z,17.23
2023-05-19T07:18:39.694Z,16.99
2023-05-19T07:22:58.040Z,17.04
2023-05-19T07:27:16.432Z,17.08
2023-05-19T07:31:34.473Z,17.17
2023-05-19T07:35:52.825Z,17.24
2023-05-19T07:40:11.014Z,17.29
2023-05-19T07:44:28.522Z,17.14
2023-05-19T07:48:46.730Z,17.05
2023-05-19T07:53:04.988Z,17.33
2023-05-19T07:57:23.750Z,17.22
2023-05-19T08:01:41.871Z,17.30
2023-05-19T08:05:59.689Z,17.13
2023-05-19T08:10:19.045Z,17.11
2023-05-19T08:14:37.639Z,17.31
2023-05-19T08:18:56.329Z,17.23
2023-05-19T08:23:14.511Z,17.44
2023-05-19T08:27:34.817Z,17.28
2023-05-19T08:31:53.394Z,17.45
2023-05-19T08:36:12.133Z,17.51
2023-05-19T08:40:32.121Z,17.61
2023-05-19T08:44:49.997Z,17.50
2023-05-19T08:49:13.683Z,17.37
2023-05-19T08:53:40.041Z,17.50
2023-05-19T08:57:57.658Z,17.44
2023-05-19T09:02:16.460Z,17.43
2023-05-19T09:06:36.106Z,17.21
2023-05-19T09:10:53.672Z,17.17
2023-05-19T09:15:16.300Z,17.21
2023-05-19T09:19:33.982Z,17.14
2023-05-19T09:23:51.831Z,17.37
2023-05-19T09:28:09.829Z,17.14
2023-05-19T09:32:28.924Z,17.20
2023-05-19T09:36:51.993Z,17.31
2023-05-19T09:41:10.864Z,17.35
2023-05-19T09:45:28.761Z,17.32
2023-05-19T09:49:49.524Z,17.25
2023-05-19T09:54:10.354Z,17.35
2023-05-19T09:58:35.664Z,17.34
2023-05-19T10:02:55.104Z,17.39
2023-05-19T10:07:14.858Z,17.54
2023-05-19T10:11:32.660Z,17.54
2023-05-19T10:15:58.159Z,17.62
2023-05-19T10:20:18.028Z,17.53
2023-05-19T10:24:35.756Z,17.49
2023-05-19T10:28:53.677Z,17.56
2023-05-19T10:33:22.803Z,17.44
2023-05-19T10:38:25.446Z,17.44
2023-05-19T10:42:59.464Z,17.33
2023-05-19T10:47:25.867Z,17.46
2023-05-19T10:51:46.532Z,17.29
2023-05-19T10:56:04.484Z,17.38
2023-05-19T11:00:32.732Z,17.72
2023-05-19T11:04:52.164Z,17.60
2023-05-19T11:09:13.860Z,17.70
2023-05-19T11:13:32.288Z,17.73
2023-05-19T11:17:51.962Z,17.54
2023-05-19T11:22:14.437Z,17.68
2023-05-19T11:26:43.438Z,17.51
2023-05-19T11:31:02.946Z,17.59
2023-05-19T11:35:21.622Z,17.68
2023-05-19T11:39:41.249Z,17.51
2023-05-19T11:43:58.872Z,17.57
2023-05-19T11:48:17.632Z,17.43
2023-05-19T11:52:35.752Z,17.44
2023-05-19T11:56:53.554Z,17.43
2023-05-19T12:01:11.486Z,17.49
2023-05-19T12:05:30.301Z,17.65
2023-05-19T12:09:48.630Z,17.50
2023-05-19T12:14:07.323Z,17.42
2023-05-19T12:18:31.774Z,17.49
2023-05-19T12:22:49.922Z,17.40
2023-05-19T12:27:20.998Z,17.54
2023-05-19T12:31:39.842Z,17.38
2023-05-19T12:35:57.925Z,17.34
2023-05-19T12:40:16.955Z,17.56
2023-05-19T12:44:50.848Z,17.47
2023-05-19T12:49:09.534Z,17.61
2023-05-19T12:53:29.812Z,17.61
2023-05-19T12:57:55.010Z,17.42
2023-05-19T13:02:14.532Z,17.58
2023-05-19T13:06:33.303Z,17.37
2023-05-19T13:10:51.273Z,17.40
2023-05-19T13:15:09.740Z,17.50
2023-05-19T13:19:29.510Z,17.47
2023-05-19T13:23:47.816Z,17.51
2023-05-19T13:28:07.453Z,17.46
2023-05-19T13:32:25.057Z,17.48
2023-05-19T13:36:49.125Z,17.62
2023-05-19T13:41:10.675Z,17.43
2023-05-19T13:45:28.919Z,17.42
2023-05-19T13:49:47.181Z,17.39
2023-05-19T13:54:06.302Z,17.36
2023-05-19T13:58:24.650Z,17.37
2023-05-19T14:02:43.070Z,17.31
2023-05-19T14:07:00.927Z,17.37
2023-05-19T14:11:23.282Z,17.41
2023-05-19T14:15:40.940Z,17.30
2023-05-19T14:20:00.837Z,17.41
2023-05-19T14:24:18.531Z,17.32
2023-05-19T14:28:36.650Z,17.08
2023-05-19T14:32:54.123Z,17.14
2023-05-19T14:37:12.849Z,17.10
2023-05-19T14:41:30.402Z,17.08
2023-05-19T14:45:49.595Z,17.23
2023-05-19T14:50:08.214Z,17.17
2023-05-19T14:54:25.948Z,17.28
2023-05-19T14:58:44.679Z,17.13
2023-05-19T15:03:02.730Z,17.09
2023-05-19T15:07:21.841Z,17.15
2023-05-19T15:11:40.091Z,17.05
2023-05-19T15:16:12.327Z,17.12
2023-05-19T15:20:38.557Z,17.39
2023-05-19T15:24:56.844Z,17.23
2023-05-19T15:29:14.485Z,17.22
2023-05-19T15:33:32.643Z,17.13
2023-05-19T15:37:51.047Z,17.04
2023-05-19T15:42:08.624Z,17.13
2023-05-19T15:46:26.671Z,17.00
2023-05-19T15:50:44.359Z,17.09
2023-05-19T15:55:02.023Z,17.10
2023-05-19T15:59:23.665Z,16.93
2023-05-19T16:03:41.289Z,17.05
2023-05-19T16:07:59.771Z,17.00
2023-05-19T16:12:17.315Z,16.94
2023-05-19T16:16:35.795Z,17.02
2023-05-19T16:20:55.852Z,16.86
2023-05-19T16:25:14.743Z,17.01
2023-05-19T16:29:32.777Z,17.00
2023-05-19T16:33:50.755Z,16.89
2023-05-19T16:38:08.331Z,16.96
2023-05-19T16:42:26.772Z,16.95
2023-05-19T16:46:44.464Z,16.89
2023-05-19T16:51:03.252Z,16.95
2023-05-19T16:55:21.192Z,16.85
2023-05-19T16:59:43.435Z,16.93
2023-05-19T17:04:01.039Z,16.95
2023-05-19T17:08:19.773Z,16.89
2023-05-19T17:12:37.796Z,16.92
2023-05-19T17:16:56.322Z,16.93
2023-05-19T17:21:14.271Z,16.95
2023-05-19T17:25:35.519Z,16.91
2023-05-19T17:29:53.168Z,16.86
2023-05-19T17:34:10.895Z,16.90
2023-05-19T17:38:29.987Z,16.90
2023-05-19T17:42:48.088Z,16.81
2023-05-19T17:47:08.347Z,16.86
2023-05-19T17:51:27.149Z,16.81
2023-05-19T17:55:51.931Z,16.84
2023-05-19T18:00:12.407Z,16.82
2023-05-19T18:04:31.362Z,16.82
2023-05-19T18:08:52.188Z,16.83
2023-05-19T18:13:14.188Z,16.81
2023-05-19T18:17:31.936Z,16.82
2023-05-19T18:21:52.417Z,16.79
2023-05-19T18:26:14.704Z,16.82
2023-05-19T18:30:32.495Z,16.78
2023-05-19T18:34:50.848Z,16.78
2023-05-19T18:39:08.295Z,16.79
2023-05-19T18:43:26.843Z,16.75
2023-05-19T18:47:44.491Z,16.80
2023-05-19T18:52:02.343Z,16.77
2023-05-19T18:56:26.332Z,16.80
2023-05-19T19:00:44.183Z,16.79
2023-05-19T19:05:04.214Z,16.78
2023-05-19T19:09:22.013Z,16.79
2023-05-19T19:13:40.275Z,16.76
2023-05-19T19:17:57.875Z,16.71
2023-05-19T19:22:17.108Z,16.78
2023-05-19T19:26:34.858Z,16.69
2023-05-19T19:30:58.948Z,16.76
2023-05-19T19:35:16.847Z,16.75
2023-05-19T19:39:36.563Z,16.78
2023-05-19T19:43:54.109Z,16.75
2023-05-19T19:48:12.721Z,16.69
2023-05-19T19:52:30.669Z,16.79
2023-05-19T19:56:48.879Z,16.74
2023-05-19T20:01:09.303Z,16.79
2023-05-19T20:05:28.271Z,16.76
2023-05-19T20:09:47.856Z,16.69
2023-05-19T20:14:05.992Z,16.72
2023-05-19T20:18:27.876Z,16.74
2023-05-19T20:22:46.621Z,16.74
2023-05-19T20:27:04.683Z,16.74
2023-05-19T20:31:24.125Z,16.74
2023-05-19T20:35:41.828Z,16.72
2023-05-19T20:39:59.999Z,16.70
2023-05-19T20:44:17.581Z,16.69
2023-05-19T20:48:35.792Z,16.73
2023-05-19T20:52:53.327Z,16.69
2023-05-19T20:57:15.084Z,16.71
2023-05-19T21:01:32.726Z,16.68
2023-05-19T21:05:51.354Z,16.69
2023-05-19T21:10:10.155Z,16.67
2023-05-19T21:14:27.761Z,16.66
2023-05-19T21:18:45.930Z,16.72
2023-05-19T21:23:04.893Z,16.68
2023-05-19T21:27:24.867Z,16.69
2023-05-19T21:31:42.565Z,16.68
2023-05-19T21:36:00.647Z,16.68
2023-05-19T21:40:19.098Z,16.66
2023-05-19T21:44:37.396Z,16.67
2023-05-19T21:48:55.110Z,16.67
2023-05-19T21:53:13.186Z,16.59
2023-05-19T21:57:32.234Z,16.67
2023-05-19T22:01:50.842Z,16.61
2023-05-19T22:06:08.493Z,16.62
2023-05-19T22:10:27.599Z,16.63
2023-05-19T22:14:45.945Z,16.61
2023-05-19T22:19:04.827Z,16.65
2023-05-19T22:23:22.970Z,16.64
2023-05-19T22:27:40.538Z,16.66
2023-05-19T22:31:58.764Z,16.62
2023-05-19T22:36:16.664Z,16.68
2023-05-19T22:40:35.642Z,16.62
2023-05-19T22:44:53.514Z,16.61
2023-05-19T22:49:11.826Z,16.64
2023-05-19T22:53:29.370Z,16.61
2023-05-19T22:57:47.283Z,16.63
2023-05-19T23:02:06.201Z,16.60
2023-05-19T23:06:24.128Z,16.62
2023-05-19T23:10:41.622Z,16.67
2023-05-19T23:15:00.423Z,16.58
2023-05-19T23:19:18.676Z,16.60
2023-05-19T23:23:37.071Z,16.60
2023-05-19T23:27:55.846Z,16.61
2023-05-19T23:32:13.394Z,16.60
2023-05-19T23:36:31.913Z,16.59
2023-05-19T23:40:49.482Z,16.62
2023-05-19T23:45:08.677Z,16.59
2023-05-19T23:49:26.372Z,16.69
2023-05-19T23:53:44.134Z,16.61
2023-05-19T23:58:02.327Z,16.60
